createdAt,value
2019-06-10T00:01:21.403Z,80.30
2019-06-10T00:03:51.717Z,80.40
2019-06-10T00:06:21.245Z,80.80
2019-06-10T00:08:51.720Z,80.30
2019-06-10T00:11:21.430Z,80.40
2019-06-10T00:13:50.863Z,80.50
2019-06-10T00:16:20.790Z,80.40
2019-06-10T00:18:51.041Z,80.50
2019-06-10T00:21:21.778Z,80.70
2019-06-10T00:23:51.798Z,80.70
2019-06-10T00:26:21.692Z,80.60
2019-06-10T00:28:51.449Z,80.60
2019-06-10T00:31:20.927Z,80.90
2019-06-10T00:33:51.930Z,81.30
2019-06-10T00:36:21.629Z,81.00
2019-06-10T00:38:51.792Z,81.10
2019-06-10T00:41:21.922Z,81.30
2019-06-10T00:43:51.828Z,81.20
2019-06-10T00:46:21.298Z,81.40
2019-06-10T00:48:51.083Z,81.00
2019-06-10T00:51:20.944Z,81.10
2019-06-10T00:53:51.335Z,81.50
2019-06-10T00:56:21.747Z,81.40
2019-06-10T00:58:51.532Z,81.30
2019-06-10T01:01:21.915Z,81.30
2019-06-10T01:03:51.458Z,81.40
2019-06-10T01:06:21.305Z,81.50
2019-06-10T01:08:51.352Z,81.70
2019-06-10T01:11:26.753Z,81.80
2019-06-10T01:13:51.691Z,82.10
2019-06-10T01:16:21.687Z,82.10
2019-06-10T01:18:53.622Z,82.50
2019-06-10T01:21:22.347Z,81.90
2019-06-10T01:23:51.638Z,82.10
2019-06-10T01:26:21.752Z,82.10
2019-06-10T01:28:51.702Z,82.00
2019-06-10T01:31:24.223Z,81.60
2019-06-10T01:33:52.254Z,81.30
2019-06-10T01:36:21.774Z,81.60
2019-06-10T01:38:51.346Z,81.60
2019-06-10T01:41:21.362Z,82.10
2019-06-10T01:43:51.389Z,82.30
2019-06-10T01:46:21.283Z,82.20
2019-06-10T01:48:52.051Z,82.00
2019-06-10T01:51:21.693Z,81.80
2019-06-10T01:53:51.480Z,82.00
2019-06-10T01:56:21.531Z,82.20
2019-06-10T01:58:52.138Z,82.30
2019-06-10T02:01:30.665Z,82.10
2019-06-10T02:04:00.904Z,82.30
2019-06-10T02:06:31.714Z,82.50
2019-06-10T02:09:07.033Z,82.50
2019-06-10T02:11:36.807Z,82.70
2019-06-10T02:14:07.130Z,83.10
2019-06-10T02:16:36.641Z,83.10
2019-06-10T02:19:06.154Z,83.20
2019-06-10T02:21:35.699Z,83.50
2019-06-10T02:24:05.347Z,83.50
2019-06-10T02:26:34.938Z,83.50
2019-06-10T02:29:04.611Z,83.90
2019-06-10T02:31:37.372Z,83.30
2019-06-10T02:34:04.988Z,83.20
2019-06-10T02:36:36.725Z,83.60
2019-06-10T02:39:07.620Z,83.60
2019-06-10T02:41:37.943Z,83.80
2019-06-10T02:44:07.686Z,84.00
2019-06-10T02:46:37.004Z,84.40
2019-06-10T02:49:26.566Z,84.80
2019-06-10T02:51:37.507Z,85.30
2019-06-10T02:54:06.778Z,85.10
2019-06-10T02:56:36.925Z,85.30
2019-06-10T02:59:06.600Z,85.40
2019-06-10T03:01:38.223Z,84.40
2019-06-10T03:04:07.352Z,84.40
2019-06-10T03:06:40.259Z,85.60
2019-06-10T03:09:07.915Z,85.50
2019-06-10T03:11:37.760Z,85.50
2019-06-10T03:14:07.122Z,85.50
2019-06-10T03:16:44.045Z,85.70
2019-06-10T03:19:13.574Z,85.30
2019-06-10T03:21:43.098Z,85.30
2019-06-10T03:24:13.171Z,85.40
2019-06-10T03:26:42.918Z,85.70
2019-06-10T03:29:13.060Z,85.40
2019-06-10T03:31:47.812Z,85.50
2019-06-10T03:34:14.666Z,85.60
2019-06-10T03:36:44.382Z,85.60
2019-06-10T03:39:13.917Z,85.80
2019-06-10T03:41:43.197Z,86.30
2019-06-10T03:44:13.161Z,86.30
2019-06-10T03:46:43.205Z,86.00
2019-06-10T03:49:12.847Z,86.10
2019-06-10T03:51:42.832Z,87.30
2019-06-10T03:54:13.068Z,87.00
2019-06-10T03:56:43.201Z,87.80
2019-06-10T03:59:12.559Z,87.30
2019-06-10T04:01:42.689Z,86.70
2019-06-10T04:04:13.134Z,87.00
2019-06-10T04:06:44.254Z,86.60
2019-06-10T04:09:13.991Z,86.70
2019-06-10T04:11:43.429Z,86.70
2019-06-10T04:14:13.156Z,87.10
2019-06-10T04:16:43.388Z,87.60
2019-06-10T04:19:13.335Z,87.40
2019-06-10T04:21:43.285Z,87.00
2019-06-10T04:24:13.014Z,87.50
2019-06-10T04:26:43.506Z,88.10
2019-06-10T04:29:13.216Z,87.40
2019-06-10T04:31:42.746Z,87.70
2019-06-10T04:34:12.553Z,88.30
2019-06-10T04:36:42.454Z,88.50
2019-06-10T04:39:12.519Z,87.80
2019-06-10T04:41:43.735Z,87.80
2019-06-10T04:44:13.357Z,88.60
2019-06-10T04:46:43.570Z,88.30
2019-06-10T04:49:13.333Z,89.40
2019-06-10T04:51:43.731Z,89.80
2019-06-10T04:54:13.432Z,89.90
2019-06-10T04:56:43.194Z,89.80
2019-06-10T04:59:12.752Z,90.70
2019-06-10T05:01:42.779Z,91.20
2019-06-10T05:04:12.728Z,92.00
2019-06-10T05:06:42.408Z,91.70
2019-06-10T05:09:12.365Z,91.50
2019-06-10T05:11:43.139Z,91.10
2019-06-10T05:14:13.253Z,91.20
2019-06-10T05:16:43.283Z,91.00
2019-06-10T05:19:13.126Z,91.00
2019-06-10T05:21:42.650Z,90.60
2019-06-10T05:24:12.431Z,90.20
2019-06-10T05:26:42.495Z,90.00
2019-06-10T05:29:12.309Z,89.40
2019-06-10T05:31:43.618Z,89.90
2019-06-10T05:34:13.059Z,90.10
2019-06-10T05:36:43.532Z,90.00
2019-06-10T05:39:13.182Z,90.00
2019-06-10T05:41:43.314Z,89.60
2019-06-10T05:44:13.507Z,89.10
2019-06-10T05:46:43.930Z,89.60
2019-06-10T05:49:14.186Z,90.10
2019-06-10T05:51:43.458Z,89.40
2019-06-10T05:54:13.013Z,89.10
2019-06-10T05:56:43.511Z,89.60
2019-06-10T05:59:13.077Z,90.00
2019-06-10T06:01:43.248Z,90.10
2019-06-10T06:04:12.988Z,90.90
2019-06-10T06:06:44.917Z,91.10
2019-06-10T06:09:13.298Z,90.40
2019-06-10T06:11:43.065Z,89.40
2019-06-10T06:14:13.187Z,89.80
2019-06-10T06:16:43.502Z,89.30
2019-06-10T06:19:13.097Z,89.00
2019-06-10T06:21:47.349Z,89.00
2019-06-10T06:24:13.354Z,88.90
2019-06-10T06:26:43.350Z,88.60
2019-06-10T06:29:13.189Z,88.70
2019-06-10T06:31:43.093Z,88.00
2019-06-10T06:34:13.897Z,88.30
2019-06-10T06:36:43.725Z,87.60
2019-06-10T06:39:13.086Z,88.30
2019-06-10T06:41:42.916Z,87.00
2019-06-10T06:44:12.959Z,86.60
2019-06-10T06:46:43.113Z,86.10
2019-06-10T06:49:13.067Z,85.20
2019-06-10T06:51:54.931Z,85.30
2019-06-10T06:54:14.319Z,85.20
2019-06-10T06:56:43.945Z,85.70
2019-06-10T06:59:14.468Z,85.60
2019-06-10T07:01:44.497Z,85.70
2019-06-10T07:04:14.271Z,85.90
2019-06-10T07:06:43.631Z,84.40
2019-06-10T07:09:13.490Z,84.10
2019-06-10T07:11:45.082Z,84.30
2019-06-10T07:14:14.924Z,84.20
2019-06-10T07:16:46.463Z,83.80
2019-06-10T07:19:15.427Z,83.10
2019-06-10T07:22:02.273Z,82.10
2019-06-10T07:24:15.687Z,81.70
2019-06-10T07:26:51.013Z,82.80
2019-06-10T07:29:16.251Z,83.00
2019-06-10T07:31:49.382Z,82.40
2019-06-10T07:34:16.979Z,82.70
2019-06-10T07:36:47.236Z,82.20
2019-06-10T07:39:16.502Z,82.80
2019-06-10T07:41:47.967Z,82.70
2019-06-10T07:44:17.013Z,82.60
2019-06-10T07:46:46.532Z,81.40
2019-06-10T07:49:16.041Z,80.80
2019-06-10T07:51:46.475Z,80.40
2019-06-10T07:54:16.210Z,79.90
2019-06-10T07:56:50.198Z,79.60
2019-06-10T07:59:17.906Z,79.70
2019-06-10T08:01:51.392Z,80.10
2019-06-10T08:04:18.267Z,80.10
2019-06-10T08:06:49.857Z,80.50
2019-06-10T08:09:18.520Z,80.00
2019-06-10T08:11:48.857Z,80.10
2019-06-10T08:14:19.170Z,78.10
2019-06-10T08:16:48.687Z,79.00
2019-06-10T08:19:33.800Z,78.40
2019-06-10T08:21:49.650Z,77.10
2019-06-10T08:24:19.077Z,77.80
2019-06-10T08:26:48.589Z,76.70
2019-06-10T08:29:18.104Z,76.00
2019-06-10T08:31:49.516Z,76.40
2019-06-10T08:34:18.593Z,75.80
2019-06-10T08:36:50.592Z,74.90
2019-06-10T08:39:18.863Z,74.40
2019-06-10T08:41:49.286Z,74.50
2019-06-10T08:44:18.657Z,74.00
2019-06-10T08:46:48.668Z,74.90
2019-06-10T08:49:18.004Z,74.20
2019-06-10T08:51:50.032Z,75.10
2019-06-10T08:54:18.488Z,74.80
2019-06-10T08:56:50.775Z,73.70
2019-06-10T08:59:18.998Z,71.50
2019-06-10T09:01:52.863Z,72.00
2019-06-10T09:04:19.263Z,71.90
2019-06-10T09:06:50.663Z,72.80
2019-06-10T09:09:19.528Z,72.50
2019-06-10T09:11:51.311Z,71.20
2019-06-10T09:14:20.025Z,72.10
2019-06-10T09:16:50.806Z,71.50
2019-06-10T09:19:22.200Z,71.50
2019-06-10T09:21:55.742Z,72.40
2019-06-10T09:24:22.323Z,72.00
2019-06-10T09:26:54.844Z,71.00
2019-06-10T09:29:22.804Z,72.10
2019-06-10T09:31:55.445Z,71.40
2019-06-10T09:34:23.905Z,70.90
2019-06-10T09:36:56.584Z,70.90
2019-06-10T09:39:25.193Z,70.00
2019-06-10T09:42:01.463Z,69.80
2019-06-10T09:44:25.446Z,69.90
2019-06-10T09:46:56.442Z,71.50
2019-06-10T09:49:27.022Z,71.10
2019-06-10T09:51:57.599Z,69.90
2019-06-10T09:54:27.301Z,70.20
2019-06-10T09:56:57.628Z,69.30
2019-06-10T09:59:26.922Z,69.30
2019-06-10T10:01:58.855Z,69.10
2019-06-10T10:04:27.645Z,69.00
2019-06-10T10:06:57.548Z,68.90
2019-06-10T10:09:26.980Z,68.40
2019-06-10T10:11:56.400Z,69.10
2019-06-10T10:14:26.909Z,69.50
2019-06-10T10:17:00.144Z,68.90
2019-06-10T10:19:27.233Z,68.80
2019-06-10T10:21:58.385Z,68.60
2019-06-10T10:24:27.937Z,69.10
2019-06-10T10:27:01.714Z,68.80
2019-06-10T10:29:28.508Z,68.30
2019-06-10T10:31:58.113Z,68.50
2019-06-10T10:34:27.406Z,69.60
2019-06-10T10:36:57.416Z,68.30
2019-06-10T10:39:27.027Z,67.70
2019-06-10T10:41:57.266Z,69.30
2019-06-10T10:44:26.716Z,67.00
2019-06-10T10:46:56.018Z,67.10
2019-06-10T10:49:25.285Z,68.40
2019-06-10T10:51:54.571Z,67.20
2019-06-10T10:54:33.047Z,67.20
2019-06-10T10:56:58.911Z,66.60
2019-06-10T10:59:27.022Z,65.80
2019-06-10T11:01:56.308Z,67.50
2019-06-10T11:04:25.629Z,65.40
2019-06-10T11:06:57.219Z,66.40
2019-06-10T11:09:26.206Z,65.30
2019-06-10T11:11:58.616Z,65.50
2019-06-10T11:14:29.435Z,67.10
2019-06-10T11:16:59.790Z,65.00
2019-06-10T11:19:29.294Z,64.30
2019-06-10T11:21:58.662Z,64.80
2019-06-10T11:24:35.870Z,65.80
2019-06-10T11:26:59.143Z,66.00
2019-06-10T11:29:28.415Z,65.20
2019-06-10T11:31:58.757Z,64.90
2019-06-10T11:34:28.957Z,65.40
2019-06-10T11:36:58.462Z,64.70
2019-06-10T11:39:27.796Z,64.20
2019-06-10T11:41:57.764Z,66.30
2019-06-10T11:44:28.120Z,65.90
2019-06-10T11:46:59.548Z,65.30
2019-06-10T11:49:28.384Z,65.10
2019-06-10T11:51:59.682Z,65.80
2019-06-10T11:54:29.076Z,64.90
2019-06-10T11:56:59.883Z,63.80
2019-06-10T11:59:29.224Z,65.00
2019-06-10T12:02:00.354Z,64.70
2019-06-10T12:04:29.721Z,65.30
2019-06-10T12:06:59.237Z,65.80
2019-06-10T12:09:28.526Z,66.60
2019-06-10T12:11:59.434Z,66.60
2019-06-10T12:14:28.834Z,66.30
2019-06-10T12:17:24.576Z,66.50
2019-06-10T12:19:29.101Z,66.00
2019-06-10T12:22:03.363Z,66.30
2019-06-10T12:24:32.821Z,68.50
2019-06-10T12:27:04.781Z,66.80
2019-06-10T12:29:33.411Z,66.60
2019-06-10T12:32:06.976Z,66.50
2019-06-10T12:34:33.737Z,67.70
2019-06-10T12:37:10.832Z,65.80
2019-06-10T12:39:33.989Z,66.20
2019-06-10T12:42:06.282Z,67.10
2019-06-10T12:44:34.702Z,66.90
2019-06-10T12:47:07.860Z,66.50
2019-06-10T12:49:35.540Z,67.30
2019-06-10T12:52:07.421Z,66.20
2019-06-10T12:54:35.917Z,67.60
2019-06-10T12:57:06.926Z,68.30
2019-06-10T12:59:36.571Z,68.60
2019-06-10T13:02:19.094Z,67.20
2019-06-10T13:04:39.063Z,67.80
2019-06-10T13:07:12.581Z,68.80
2019-06-10T13:09:43.869Z,68.30
2019-06-10T13:12:13.314Z,69.30
2019-06-10T13:14:43.652Z,70.00
2019-06-10T13:17:13.123Z,68.30
2019-06-10T13:19:43.302Z,69.00
2019-06-10T13:22:12.908Z,68.10
2019-06-10T13:24:43.383Z,69.00
2019-06-10T13:27:12.918Z,69.60
2019-06-10T13:29:43.629Z,69.30
2019-06-10T13:32:13.186Z,70.90
2019-06-10T13:34:42.604Z,68.50
2019-06-10T13:37:12.717Z,69.20
2019-06-10T13:39:43.187Z,69.80
2019-06-10T13:42:13.624Z,68.60
2019-06-10T13:44:43.814Z,68.40
2019-06-10T13:47:15.034Z,69.00
2019-06-10T13:49:45.402Z,68.90
2019-06-10T13:52:16.925Z,69.80
2019-06-10T13:54:46.220Z,68.30
2019-06-10T13:57:15.642Z,68.10
2019-06-10T13:59:46.451Z,68.20
2019-06-10T14:02:16.229Z,67.10
2019-06-10T14:04:45.763Z,67.60
2019-06-10T14:07:17.321Z,67.50
2019-06-10T14:09:46.018Z,66.40
2019-06-10T14:12:17.629Z,66.70
2019-06-10T14:14:46.517Z,66.70
2019-06-10T14:17:19.279Z,67.30
2019-06-10T14:19:47.643Z,67.40
2019-06-10T14:22:17.056Z,67.20
2019-06-10T14:24:46.403Z,66.60
2019-06-10T14:27:20.502Z,67.10
2019-06-10T14:29:46.668Z,66.20
2019-06-10T14:32:16.187Z,67.40
2019-06-10T14:34:46.645Z,68.40
2019-06-10T14:37:31.867Z,68.10
2019-06-10T14:39:47.132Z,67.60
2019-06-10T14:42:16.425Z,66.60
2019-06-10T14:44:45.711Z,68.40
2019-06-10T14:47:16.698Z,69.10
2019-06-10T14:49:46.144Z,68.10
2019-06-10T14:52:16.892Z,67.90
2019-06-10T14:54:47.092Z,68.60
2019-06-10T14:57:16.864Z,69.70
2019-06-10T14:59:46.243Z,69.80
2019-06-10T15:02:17.352Z,71.10
2019-06-10T15:04:47.072Z,72.00
2019-06-10T15:07:16.592Z,71.60
2019-06-10T15:09:46.182Z,71.50
2019-06-10T15:12:17.343Z,72.20
2019-06-10T15:14:46.689Z,71.00
2019-06-10T15:17:16.855Z,70.30
2019-06-10T15:19:46.226Z,70.30
2019-06-10T15:22:16.980Z,71.40
2019-06-10T15:24:46.613Z,71.10
2019-06-10T15:27:24.667Z,71.00
2019-06-10T15:29:48.079Z,71.00
2019-06-10T15:32:28.593Z,70.70
2019-06-10T15:34:48.347Z,70.50
2019-06-10T15:37:19.347Z,70.60
2019-06-10T15:39:48.598Z,70.30
2019-06-10T15:42:19.724Z,70.50
2019-06-10T15:44:55.160Z,70.80
2019-06-10T15:47:23.938Z,70.20
2019-06-10T15:49:52.538Z,69.20
2019-06-10T15:52:25.162Z,68.80
2019-06-10T15:54:54.127Z,67.70
2019-06-10T15:57:38.549Z,68.00
2019-06-10T15:59:54.404Z,68.40
2019-06-10T16:02:25.501Z,68.00
2019-06-10T16:04:54.995Z,68.30
2019-06-10T16:07:25.621Z,69.00
2019-06-10T16:09:55.262Z,69.10
2019-06-10T16:12:26.783Z,67.80
2019-06-10T16:14:55.528Z,67.80
2019-06-10T16:17:24.820Z,67.60
2019-06-10T16:19:54.110Z,67.60
2019-06-10T16:22:25.866Z,66.90
2019-06-10T16:24:54.379Z,67.10
2019-06-10T16:27:43.231Z,67.10
2019-06-10T16:29:54.699Z,67.70
2019-06-10T16:32:26.429Z,67.30
2019-06-10T16:34:55.204Z,67.80
2019-06-10T16:37:25.760Z,67.80
2019-06-10T16:39:55.691Z,68.70
2019-06-10T16:42:26.347Z,69.00
2019-06-10T16:44:56.194Z,68.30
2019-06-10T16:47:27.139Z,68.30
2019-06-10T16:49:56.618Z,68.60
2019-06-10T16:52:27.422Z,68.60
2019-06-10T16:54:56.887Z,69.40
2019-06-10T16:57:27.248Z,70.10
2019-06-10T16:59:56.723Z,69.50
2019-06-10T17:02:26.848Z,69.80
2019-06-10T17:04:58.485Z,69.80
2019-06-10T17:07:29.200Z,69.40
2019-06-10T17:09:58.750Z,70.10
2019-06-10T17:12:28.251Z,70.00
2019-06-10T17:14:57.540Z,70.30
2019-06-10T17:17:28.264Z,70.10
2019-06-10T17:19:57.990Z,71.10
2019-06-10T17:22:28.760Z,70.40
2019-06-10T17:24:58.242Z,71.30
2019-06-10T17:27:27.933Z,70.80
2019-06-10T17:29:57.289Z,71.10
2019-06-10T17:32:26.920Z,71.00
2019-06-10T17:34:57.322Z,71.20
2019-06-10T17:37:26.622Z,71.60
2019-06-10T17:39:56.953Z,72.20
2019-06-10T17:42:30.606Z,72.20
2019-06-10T17:44:57.460Z,72.20
2019-06-10T17:47:27.852Z,73.30
2019-06-10T17:49:57.718Z,73.20
2019-06-10T17:52:28.102Z,72.60
2019-06-10T17:54:57.719Z,72.80
2019-06-10T17:57:28.336Z,73.60
2019-06-10T17:59:58.983Z,74.20
2019-06-10T18:02:29.116Z,75.20
2019-06-10T18:04:58.551Z,76.30
2019-06-10T18:07:27.838Z,77.10
2019-06-10T18:09:58.320Z,78.00
2019-06-10T18:12:27.943Z,78.50
2019-06-10T18:14:57.297Z,78.60
2019-06-10T18:17:27.504Z,78.90
2019-06-10T18:19:57.569Z,79.60
2019-06-10T18:22:26.847Z,80.20
2019-06-10T18:24:56.131Z,79.70
2019-06-10T18:27:26.898Z,79.70
2019-06-10T18:29:56.457Z,79.80
2019-06-10T18:32:25.975Z,80.40
2019-06-10T18:34:55.236Z,80.10
2019-06-10T18:37:26.453Z,80.00
2019-06-10T18:39:56.212Z,79.60
2019-06-10T18:42:26.497Z,80.20
2019-06-10T18:44:55.861Z,80.80
2019-06-10T18:47:25.161Z,81.10
2019-06-10T18:49:54.560Z,80.90
2019-06-10T18:52:24.805Z,80.90
2019-06-10T18:54:54.082Z,81.20
2019-06-10T18:57:23.359Z,81.00
2019-06-10T18:59:52.676Z,80.80
2019-06-10T19:02:22.642Z,80.10
2019-06-10T19:04:54.594Z,80.10
2019-06-10T19:07:23.363Z,80.60
2019-06-10T19:09:52.977Z,81.00
2019-06-10T19:12:22.500Z,81.50
2019-06-10T19:14:52.306Z,82.00
2019-06-10T19:17:23.145Z,83.20
2019-06-10T19:19:53.255Z,84.10
2019-06-10T19:22:22.840Z,82.90
2019-06-10T19:24:52.981Z,82.90
2019-06-10T19:27:23.710Z,83.30
2019-06-10T19:29:54.932Z,85.30
2019-06-10T19:32:24.397Z,85.80
2019-06-10T19:34:53.685Z,85.40
2019-06-10T19:37:22.951Z,85.20
2019-06-10T19:39:54.055Z,86.40
2019-06-10T19:42:23.491Z,86.50
2019-06-10T19:44:52.775Z,85.00
2019-06-10T19:47:23.520Z,87.40
2019-06-10T19:49:53.247Z,85.70
2019-06-10T19:52:23.613Z,86.50
2019-06-10T19:54:53.178Z,87.10
2019-06-10T19:57:22.530Z,86.60
2019-06-10T20:00:07.352Z,87.20
2019-06-10T20:02:22.802Z,86.80
2019-06-10T20:04:52.785Z,87.30
2019-06-10T20:07:22.972Z,87.50
2019-06-10T20:09:52.655Z,87.50
2019-06-10T20:12:22.901Z,88.00
2019-06-10T20:14:52.870Z,87.90
2019-06-10T20:17:22.808Z,87.80
2019-06-10T20:19:53.444Z,87.30
2019-06-10T20:22:22.951Z,88.10
2019-06-10T20:24:52.560Z,88.50
2019-06-10T20:27:22.648Z,89.20
2019-06-10T20:30:04.595Z,88.70
2019-06-10T20:32:23.346Z,89.10
2019-06-10T20:34:53.819Z,88.90
2019-06-10T20:37:23.123Z,88.40
2019-06-10T20:39:53.815Z,87.60
2019-06-10T20:42:23.305Z,88.20
2019-06-10T20:44:52.807Z,88.40
2019-06-10T20:47:23.107Z,88.70
2019-06-10T20:49:55.949Z,89.50
2019-06-10T20:52:23.430Z,91.00
2019-06-10T20:54:53.257Z,92.40
2019-06-10T20:57:22.738Z,92.60
2019-06-10T20:59:52.016Z,92.80
2019-06-10T21:02:22.499Z,92.40
2019-06-10T21:04:53.196Z,93.50
2019-06-10T21:07:23.867Z,94.40
2019-06-10T21:09:54.813Z,93.80
2019-06-10T21:12:24.328Z,93.20
2019-06-10T21:14:53.675Z,95.00
2019-06-10T21:17:23.005Z,94.00
2019-06-10T21:19:53.798Z,93.80
2019-06-10T21:22:23.412Z,93.70
2019-06-10T21:24:53.584Z,94.80
2019-06-10T21:27:23.980Z,95.30
2019-06-10T21:29:54.673Z,95.60
2019-06-10T21:32:24.200Z,96.50
2019-06-10T21:34:53.999Z,94.80
2019-06-10T21:37:23.299Z,95.50
2019-06-10T21:39:55.459Z,94.40
2019-06-10T21:42:23.826Z,94.80
2019-06-10T21:44:53.126Z,94.90
2019-06-10T21:47:23.430Z,94.00
2019-06-10T21:49:54.788Z,95.10
2019-06-10T21:52:24.062Z,95.90
2019-06-10T21:54:53.339Z,96.60
2019-06-10T21:57:22.612Z,96.20
2019-06-10T21:59:54.972Z,95.50
2019-06-10T22:02:23.242Z,96.80
2019-06-10T22:04:55.392Z,96.20
2019-06-10T22:07:23.703Z,96.20
2019-06-10T22:09:54.803Z,95.90
2019-06-10T22:12:24.439Z,96.40
2019-06-10T22:14:54.775Z,95.50
2019-06-10T22:17:24.063Z,95.70
2019-06-10T22:19:55.093Z,95.50
2019-06-10T22:22:24.319Z,95.60
2019-06-10T22:24:54.786Z,95.60
2019-06-10T22:27:24.812Z,95.10
2019-06-10T22:29:55.743Z,95.30
2019-06-10T22:32:25.291Z,96.50
2019-06-10T22:34:55.815Z,95.80
2019-06-10T22:37:25.551Z,96.10
2019-06-10T22:39:56.614Z,95.50
2019-06-10T22:42:26.054Z,96.00
2019-06-10T22:44:57.899Z,96.70
2019-06-10T22:47:26.287Z,95.70
2019-06-10T22:49:57.807Z,95.50
2019-06-10T22:52:26.783Z,95.60
2019-06-10T22:54:58.407Z,94.50
2019-06-10T22:57:27.055Z,94.60
2019-06-10T22:59:57.751Z,94.60
2019-06-10T23:02:27.338Z,94.10
2019-06-10T23:04:59.375Z,94.50
2019-06-10T23:07:27.599Z,95.10
2019-06-10T23:09:57.851Z,94.50
2019-06-10T23:12:28.111Z,94.70
2019-06-10T23:14:57.793Z,94.60
2019-06-10T23:17:27.619Z,94.30
2019-06-10T23:19:58.051Z,94.40
2019-06-10T23:22:27.662Z,94.30
2019-06-10T23:24:57.727Z,94.20
2019-06-10T23:27:27.311Z,94.50
2019-06-10T23:29:57.578Z,94.20
2019-06-10T23:32:28.085Z,94.20
2019-06-10T23:35:01.028Z,94.60
2019-06-10T23:37:29.311Z,94.20
2019-06-10T23:39:59.014Z,94.00
2019-06-10T23:42:28.358Z,93.70
2019-06-10T23:44:59.138Z,93.60
2019-06-10T23:47:28.528Z,93.60
2019-06-10T23:49:58.035Z,92.50
2019-06-10T23:52:27.556Z,92.00
2019-06-10T23:54:57.894Z,92.40
2019-06-10T23:57:27.418Z,92.30
2019-06-10T23:59:56.900Z,92.40
